sensor_id;sensor_type;location;lat;lon;timestamp;P1;durP1;ratioP1;P2;durP2;ratioP2
17618;SDS011;8928;51.678;6.074;2022-09-06T00:01:53;9.02;;;2.10;;
17618;SDS011;8928;51.678;6.074;2022-09-06T00:04:40;7.22;;;1.80;;
17618;SDS011;8928;51.678;6.074;2022-09-06T00:07:27;2.85;;;1.77;;
17618;SDS011;8928;51.678;6.074;2022-09-06T00:10:14;3.42;;;1.75;;
17618;SDS011;8928;51.678;6.074;2022-09-06T00:13:01;5.72;;;1.67;;
17618;SDS011;8928;51.678;6.074;2022-09-06T00:15:50;3.25;;;1.77;;
17618;SDS011;8928;51.678;6.074;2022-09-06T00:18:38;6.00;;;1.60;;
17618;SDS011;8928;51.678;6.074;2022-09-06T00:21:26;5.82;;;1.77;;
17618;SDS011;8928;51.678;6.074;2022-09-06T00:24:15;3.08;;;1.83;;
17618;SDS011;8928;51.678;6.074;2022-09-06T00:27:02;5.55;;;1.80;;
17618;SDS011;8928;51.678;6.074;2022-09-06T00:29:49;3.40;;;1.77;;
17618;SDS011;8928;51.678;6.074;2022-09-06T00:32:37;5.30;;;1.83;;
17618;SDS011;8928;51.678;6.074;2022-09-06T00:35:25;4.43;;;1.95;;
17618;SDS011;8928;51.678;6.074;2022-09-06T00:38:13;7.75;;;2.30;;
17618;SDS011;8928;51.678;6.074;2022-09-06T00:41:00;7.95;;;2.13;;
17618;SDS011;8928;51.678;6.074;2022-09-06T00:43:47;5.93;;;1.95;;
17618;SDS011;8928;51.678;6.074;2022-09-06T00:46:35;6.03;;;2.00;;
17618;SDS011;8928;51.678;6.074;2022-09-06T00:49:25;4.72;;;2.10;;
17618;SDS011;8928;51.678;6.074;2022-09-06T00:52:17;7.75;;;2.10;;
17618;SDS011;8928;51.678;6.074;2022-09-06T00:55:05;5.50;;;2.03;;
17618;SDS011;8928;51.678;6.074;2022-09-06T00:57:53;4.70;;;1.95;;
17618;SDS011;8928;51.678;6.074;2022-09-06T01:00:40;4.35;;;2.00;;
17618;SDS011;8928;51.678;6.074;2022-09-06T01:03:29;3.47;;;2.13;;
17618;SDS011;8928;51.678;6.074;2022-09-06T01:06:19;3.85;;;1.90;;
17618;SDS011;8928;51.678;6.074;2022-09-06T01:09:15;4.35;;;2.22;;
17618;SDS011;8928;51.678;6.074;2022-09-06T01:12:14;3.35;;;2.00;;
17618;SDS011;8928;51.678;6.074;2022-09-06T01:15:14;4.97;;;2.30;;
17618;SDS011;8928;51.678;6.074;2022-09-06T01:18:10;4.03;;;2.22;;
17618;SDS011;8928;51.678;6.074;2022-09-06T01:21:10;3.90;;;2.35;;
17618;SDS011;8928;51.678;6.074;2022-09-06T01:24:22;4.15;;;2.10;;
17618;SDS011;8928;51.678;6.074;2022-09-06T01:30:49;10.50;;;2.50;;
17618;SDS011;8928;51.678;6.074;2022-09-06T01:33:40;6.53;;;2.53;;
17618;SDS011;8928;51.678;6.074;2022-09-06T01:36:34;4.25;;;2.40;;
17618;SDS011;8928;51.678;6.074;2022-09-06T01:39:26;7.05;;;2.72;;
17618;SDS011;8928;51.678;6.074;2022-09-06T01:42:15;6.75;;;2.63;;
17618;SDS011;8928;51.678;6.074;2022-09-06T01:45:07;4.28;;;2.80;;
17618;SDS011;8928;51.678;6.074;2022-09-06T01:47:58;4.20;;;2.83;;
17618;SDS011;8928;51.678;6.074;2022-09-06T01:50:56;4.15;;;3.10;;
17618;SDS011;8928;51.678;6.074;2022-09-06T01:54:02;5.25;;;3.33;;
17618;SDS011;8928;51.678;6.074;2022-09-06T01:57:08;5.32;;;3.67;;
17618;SDS011;8928;51.678;6.074;2022-09-06T02:00:03;6.85;;;3.42;;
17618;SDS011;8928;51.678;6.074;2022-09-06T02:02:58;9.03;;;3.57;;
17618;SDS011;8928;51.678;6.074;2022-09-06T02:05:54;6.63;;;3.55;;
17618;SDS011;8928;51.678;6.074;2022-09-06T02:08:48;7.80;;;3.30;;
17618;SDS011;8928;51.678;6.074;2022-09-06T02:11:39;5.73;;;3.20;;
17618;SDS011;8928;51.678;6.074;2022-09-06T02:14:32;5.83;;;3.67;;
17618;SDS011;8928;51.678;6.074;2022-09-06T02:17:25;4.67;;;3.23;;
17618;SDS011;8928;51.678;6.074;2022-09-06T02:20:17;7.27;;;3.33;;
17618;SDS011;8928;51.678;6.074;2022-09-06T02:23:08;6.50;;;3.67;;
17618;SDS011;8928;51.678;6.074;2022-09-06T02:25:57;8.90;;;4.10;;
17618;SDS011;8928;51.678;6.074;2022-09-06T02:28:48;7.67;;;4.20;;
17618;SDS011;8928;51.678;6.074;2022-09-06T02:31:36;10.63;;;4.10;;
17618;SDS011;8928;51.678;6.074;2022-09-06T02:34:27;6.00;;;3.90;;
17618;SDS011;8928;51.678;6.074;2022-09-06T02:37:15;6.00;;;4.07;;
17618;SDS011;8928;51.678;6.074;2022-09-06T02:40:03;6.10;;;4.00;;
17618;SDS011;8928;51.678;6.074;2022-09-06T02:42:51;7.33;;;4.10;;
17618;SDS011;8928;51.678;6.074;2022-09-06T02:45:38;8.37;;;3.87;;
17618;SDS011;8928;51.678;6.074;2022-09-06T02:48:26;7.80;;;3.63;;
17618;SDS011;8928;51.678;6.074;2022-09-06T02:51:14;9.30;;;4.20;;
17618;SDS011;8928;51.678;6.074;2022-09-06T02:54:02;6.50;;;4.00;;
17618;SDS011;8928;51.678;6.074;2022-09-06T02:56:49;10.47;;;4.23;;
17618;SDS011;8928;51.678;6.074;2022-09-06T02:59:36;7.40;;;4.10;;
17618;SDS011;8928;51.678;6.074;2022-09-06T03:02:23;11.37;;;4.00;;
17618;SDS011;8928;51.678;6.074;2022-09-06T03:05:11;9.00;;;4.60;;
17618;SDS011;8928;51.678;6.074;2022-09-06T03:07:58;7.10;;;3.70;;
17618;SDS011;8928;51.678;6.074;2022-09-06T03:10:48;10.37;;;3.97;;
17618;SDS011;8928;51.678;6.074;2022-09-06T03:13:35;6.13;;;3.93;;
17618;SDS011;8928;51.678;6.074;2022-09-06T03:16:22;5.70;;;3.97;;
17618;SDS011;8928;51.678;6.074;2022-09-06T03:19:10;8.57;;;4.70;;
17618;SDS011;8928;51.678;6.074;2022-09-06T03:21:57;10.00;;;5.30;;
17618;SDS011;8928;51.678;6.074;2022-09-06T03:24:44;8.97;;;5.07;;
17618;SDS011;8928;51.678;6.074;2022-09-06T03:27:32;7.00;;;4.83;;
17618;SDS011;8928;51.678;6.074;2022-09-06T03:30:20;7.43;;;4.87;;
17618;SDS011;8928;51.678;6.074;2022-09-06T03:33:07;11.37;;;5.20;;
17618;SDS011;8928;51.678;6.074;2022-09-06T03:35:54;7.07;;;4.80;;
17618;SDS011;8928;51.678;6.074;2022-09-06T03:38:43;10.10;;;5.40;;
17618;SDS011;8928;51.678;6.074;2022-09-06T03:41:30;7.60;;;5.10;;
17618;SDS011;8928;51.678;6.074;2022-09-06T03:44:18;7.83;;;5.27;;
17618;SDS011;8928;51.678;6.074;2022-09-06T03:47:05;8.93;;;5.43;;
17618;SDS011;8928;51.678;6.074;2022-09-06T03:49:53;7.50;;;5.10;;
17618;SDS011;8928;51.678;6.074;2022-09-06T03:52:40;8.80;;;5.50;;
17618;SDS011;8928;51.678;6.074;2022-09-06T03:55:27;7.43;;;5.37;;
17618;SDS011;8928;51.678;6.074;2022-09-06T03:58:14;8.97;;;5.70;;
17618;SDS011;8928;51.678;6.074;2022-09-06T04:01:05;8.80;;;5.53;;
17618;SDS011;8928;51.678;6.074;2022-09-06T04:03:53;8.80;;;5.00;;
17618;SDS011;8928;51.678;6.074;2022-09-06T04:06:40;9.23;;;5.50;;
17618;SDS011;8928;51.678;6.074;2022-09-06T04:09:27;7.97;;;5.80;;
17618;SDS011;8928;51.678;6.074;2022-09-06T04:12:14;7.60;;;5.50;;
17618;SDS011;8928;51.678;6.074;2022-09-06T04:15:02;9.00;;;5.57;;
17618;SDS011;8928;51.678;6.074;2022-09-06T04:17:51;9.97;;;5.60;;
17618;SDS011;8928;51.678;6.074;2022-09-06T04:20:38;9.40;;;5.67;;
17618;SDS011;8928;51.678;6.074;2022-09-06T04:23:25;10.30;;;6.00;;
17618;SDS011;8928;51.678;6.074;2022-09-06T04:26:13;9.90;;;6.07;;
17618;SDS011;8928;51.678;6.074;2022-09-06T04:29:00;11.13;;;6.10;;
17618;SDS011;8928;51.678;6.074;2022-09-06T04:31:47;8.43;;;5.70;;
17618;SDS011;8928;51.678;6.074;2022-09-06T04:34:36;10.23;;;5.80;;
17618;SDS011;8928;51.678;6.074;2022-09-06T04:37:23;10.57;;;6.30;;
17618;SDS011;8928;51.678;6.074;2022-09-06T04:40:10;10.60;;;6.13;;
17618;SDS011;8928;51.678;6.074;2022-09-06T04:42:57;13.13;;;6.60;;
17618;SDS011;8928;51.678;6.074;2022-09-06T04:45:44;11.37;;;6.40;;
17618;SDS011;8928;51.678;6.074;2022-09-06T04:48:32;9.57;;;5.80;;
17618;SDS011;8928;51.678;6.074;2022-09-06T04:51:20;11.70;;;6.53;;
17618;SDS011;8928;51.678;6.074;2022-09-06T04:54:08;9.70;;;6.00;;
17618;SDS011;8928;51.678;6.074;2022-09-06T04:56:55;8.87;;;6.27;;
17618;SDS011;8928;51.678;6.074;2022-09-06T04:59:42;9.90;;;6.20;;
17618;SDS011;8928;51.678;6.074;2022-09-06T05:02:29;11.17;;;6.40;;
17618;SDS011;8928;51.678;6.074;2022-09-06T05:05:16;10.03;;;6.63;;
17618;SDS011;8928;51.678;6.074;2022-09-06T05:08:05;9.27;;;6.53;;
17618;SDS011;8928;51.678;6.074;2022-09-06T05:10:52;9.50;;;6.67;;
17618;SDS011;8928;51.678;6.074;2022-09-06T05:13:39;15.77;;;7.60;;
17618;SDS011;8928;51.678;6.074;2022-09-06T05:16:26;10.00;;;6.90;;
17618;SDS011;8928;51.678;6.074;2022-09-06T05:19:13;12.00;;;6.53;;
17618;SDS011;8928;51.678;6.074;2022-09-06T05:22:01;10.07;;;6.50;;
17618;SDS011;8928;51.678;6.074;2022-09-06T05:24:49;12.40;;;6.93;;
17618;SDS011;8928;51.678;6.074;2022-09-06T05:27:36;15.27;;;7.57;;
17618;SDS011;8928;51.678;6.074;2022-09-06T05:30:24;10.60;;;6.57;;
17618;SDS011;8928;51.678;6.074;2022-09-06T05:33:11;9.93;;;7.37;;
17618;SDS011;8928;51.678;6.074;2022-09-06T05:36:00;13.90;;;8.27;;
17618;SDS011;8928;51.678;6.074;2022-09-06T05:38:47;15.10;;;7.97;;
17618;SDS011;8928;51.678;6.074;2022-09-06T05:41:36;9.60;;;7.20;;
17618;SDS011;8928;51.678;6.074;2022-09-06T05:44:23;11.30;;;7.87;;
17618;SDS011;8928;51.678;6.074;2022-09-06T05:47:10;11.83;;;7.77;;
17618;SDS011;8928;51.678;6.074;2022-09-06T05:49:57;11.77;;;8.10;;
17618;SDS011;8928;51.678;6.074;2022-09-06T05:52:44;13.60;;;8.30;;
17618;SDS011;8928;51.678;6.074;2022-09-06T05:55:31;12.80;;;9.10;;
17618;SDS011;8928;51.678;6.074;2022-09-06T05:58:20;15.00;;;9.60;;
17618;SDS011;8928;51.678;6.074;2022-09-06T06:01:12;13.80;;;8.80;;
17618;SDS011;8928;51.678;6.074;2022-09-06T06:04:02;14.57;;;10.53;;
17618;SDS011;8928;51.678;6.074;2022-09-06T06:06:52;14.40;;;10.37;;
17618;SDS011;8928;51.678;6.074;2022-09-06T06:09:39;13.60;;;9.50;;
17618;SDS011;8928;51.678;6.074;2022-09-06T06:12:26;18.97;;;10.50;;
17618;SDS011;8928;51.678;6.074;2022-09-06T06:15:15;16.67;;;11.03;;
17618;SDS011;8928;51.678;6.074;2022-09-06T06:18:02;16.80;;;9.60;;
17618;SDS011;8928;51.678;6.074;2022-09-06T06:20:49;16.37;;;10.10;;
17618;SDS011;8928;51.678;6.074;2022-09-06T06:23:36;14.97;;;10.20;;
17618;SDS011;8928;51.678;6.074;2022-09-06T06:26:24;16.47;;;10.33;;
17618;SDS011;8928;51.678;6.074;2022-09-06T06:29:12;15.93;;;9.93;;
17618;SDS011;8928;51.678;6.074;2022-09-06T06:32:01;18.50;;;10.30;;
17618;SDS011;8928;51.678;6.074;2022-09-06T06:34:48;20.07;;;9.67;;
17618;SDS011;8928;51.678;6.074;2022-09-06T06:37:35;22.80;;;9.90;;
17618;SDS011;8928;51.678;6.074;2022-09-06T06:40:22;15.97;;;9.50;;
17618;SDS011;8928;51.678;6.074;2022-09-06T06:43:09;20.30;;;9.70;;
17618;SDS011;8928;51.678;6.074;2022-09-06T06:45:56;14.90;;;9.20;;
17618;SDS011;8928;51.678;6.074;2022-09-06T06:48:45;16.87;;;9.20;;
17618;SDS011;8928;51.678;6.074;2022-09-06T06:51:33;13.70;;;8.27;;
17618;SDS011;8928;51.678;6.074;2022-09-06T06:54:22;11.97;;;9.27;;
17618;SDS011;8928;51.678;6.074;2022-09-06T06:57:09;14.80;;;8.90;;
17618;SDS011;8928;51.678;6.074;2022-09-06T06:59:57;10.97;;;8.37;;
17618;SDS011;8928;51.678;6.074;2022-09-06T07:02:44;14.15;;;8.70;;
17618;SDS011;8928;51.678;6.074;2022-09-06T07:05:32;13.98;;;8.55;;
17618;SDS011;8928;51.678;6.074;2022-09-06T07:08:19;12.77;;;8.40;;
17618;SDS011;8928;51.678;6.074;2022-09-06T07:11:07;13.55;;;8.43;;
17618;SDS011;8928;51.678;6.074;2022-09-06T07:13:55;16.52;;;7.90;;
17618;SDS011;8928;51.678;6.074;2022-09-06T07:16:43;12.50;;;8.43;;
17618;SDS011;8928;51.678;6.074;2022-09-06T07:19:30;12.50;;;8.27;;
17618;SDS011;8928;51.678;6.074;2022-09-06T07:22:18;17.60;;;8.50;;
17618;SDS011;8928;51.678;6.074;2022-09-06T07:25:06;14.93;;;8.02;;
17618;SDS011;8928;51.678;6.074;2022-09-06T07:27:56;13.00;;;7.88;;
17618;SDS011;8928;51.678;6.074;2022-09-06T07:30:45;16.75;;;7.85;;
17618;SDS011;8928;51.678;6.074;2022-09-06T07:33:33;13.85;;;7.93;;
17618;SDS011;8928;51.678;6.074;2022-09-06T07:36:20;11.63;;;7.25;;
17618;SDS011;8928;51.678;6.074;2022-09-06T07:39:08;16.08;;;7.07;;
17618;SDS011;8928;51.678;6.074;2022-09-06T07:41:56;13.95;;;7.93;;
17618;SDS011;8928;51.678;6.074;2022-09-06T07:44:43;16.90;;;7.97;;
17618;SDS011;8928;51.678;6.074;2022-09-06T07:47:30;13.10;;;7.20;;
17618;SDS011;8928;51.678;6.074;2022-09-06T07:50:17;16.08;;;7.43;;
17618;SDS011;8928;51.678;6.074;2022-09-06T07:53:04;13.50;;;6.80;;
17618;SDS011;8928;51.678;6.074;2022-09-06T07:55:53;10.20;;;6.70;;
17618;SDS011;8928;51.678;6.074;2022-09-06T07:58:40;12.77;;;6.97;;
17618;SDS011;8928;51.678;6.074;2022-09-06T08:01:28;10.07;;;6.20;;
17618;SDS011;8928;51.678;6.074;2022-09-06T08:04:16;13.38;;;6.43;;
17618;SDS011;8928;51.678;6.074;2022-09-06T08:07:03;11.98;;;6.03;;
17618;SDS011;8928;51.678;6.074;2022-09-06T08:09:50;10.07;;;5.65;;
17618;SDS011;8928;51.678;6.074;2022-09-06T08:12:39;12.50;;;5.85;;
17618;SDS011;8928;51.678;6.074;2022-09-06T08:15:26;11.70;;;5.25;;
17618;SDS011;8928;51.678;6.074;2022-09-06T08:18:14;9.40;;;4.70;;
17618;SDS011;8928;51.678;6.074;2022-09-06T08:21:04;11.82;;;4.32;;
17618;SDS011;8928;51.678;6.074;2022-09-06T08:23:53;11.75;;;4.43;;
17618;SDS011;8928;51.678;6.074;2022-09-06T08:26:42;7.55;;;4.45;;
17618;SDS011;8928;51.678;6.074;2022-09-06T08:29:30;9.25;;;3.78;;
17618;SDS011;8928;51.678;6.074;2022-09-06T08:32:17;9.20;;;3.33;;
17618;SDS011;8928;51.678;6.074;2022-09-06T08:35:04;8.07;;;3.20;;
17618;SDS011;8928;51.678;6.074;2022-09-06T08:37:51;7.07;;;3.25;;
17618;SDS011;8928;51.678;6.074;2022-09-06T08:40:40;11.15;;;3.47;;
17618;SDS011;8928;51.678;6.074;2022-09-06T08:43:27;7.10;;;3.40;;
17618;SDS011;8928;51.678;6.074;2022-09-06T08:46:16;6.90;;;3.33;;
17618;SDS011;8928;51.678;6.074;2022-09-06T08:49:04;8.75;;;2.92;;
17618;SDS011;8928;51.678;6.074;2022-09-06T08:52:01;7.18;;;3.42;;
17618;SDS011;8928;51.678;6.074;2022-09-06T08:55:03;6.22;;;3.10;;
17618;SDS011;8928;51.678;6.074;2022-09-06T08:58:06;8.77;;;2.88;;
17618;SDS011;8928;51.678;6.074;2022-09-06T09:01:11;10.23;;;3.50;;
17618;SDS011;8928;51.678;6.074;2022-09-06T09:04:04;7.93;;;3.20;;
17618;SDS011;8928;51.678;6.074;2022-09-06T09:06:58;8.02;;;3.10;;
17618;SDS011;8928;51.678;6.074;2022-09-06T09:09:52;6.00;;;2.85;;
17618;SDS011;8928;51.678;6.074;2022-09-06T09:12:43;5.28;;;2.90;;
17618;SDS011;8928;51.678;6.074;2022-09-06T09:15:33;8.60;;;2.60;;
17618;SDS011;8928;51.678;6.074;2022-09-06T09:18:22;9.55;;;1.98;;
17618;SDS011;8928;51.678;6.074;2022-09-06T09:21:14;9.52;;;2.10;;
17618;SDS011;8928;51.678;6.074;2022-09-06T09:24:06;5.55;;;1.90;;
17618;SDS011;8928;51.678;6.074;2022-09-06T09:26:55;4.72;;;1.88;;
17618;SDS011;8928;51.678;6.074;2022-09-06T09:29:58;5.18;;;2.10;;
17618;SDS011;8928;51.678;6.074;2022-09-06T09:32:46;5.45;;;2.25;;
17618;SDS011;8928;51.678;6.074;2022-09-06T09:35:35;4.50;;;1.90;;
17618;SDS011;8928;51.678;6.074;2022-09-06T09:38:28;5.20;;;1.70;;
17618;SDS011;8928;51.678;6.074;2022-09-06T09:41:23;4.13;;;1.67;;
17618;SDS011;8928;51.678;6.074;2022-09-06T09:44:15;5.65;;;1.70;;
17618;SDS011;8928;51.678;6.074;2022-09-06T09:47:08;5.85;;;1.60;;
17618;SDS011;8928;51.678;6.074;2022-09-06T09:50:20;2.83;;;1.63;;
17618;SDS011;8928;51.678;6.074;2022-09-06T09:53:10;5.78;;;2.10;;
17618;SDS011;8928;51.678;6.074;2022-09-06T09:55:59;7.57;;;2.10;;
17618;SDS011;8928;51.678;6.074;2022-09-06T09:58:46;6.57;;;1.73;;
17618;SDS011;8928;51.678;6.074;2022-09-06T10:01:33;4.90;;;1.90;;
17618;SDS011;8928;51.678;6.074;2022-09-06T10:04:27;3.50;;;2.20;;
17618;SDS011;8928;51.678;6.074;2022-09-06T10:07:16;5.75;;;1.60;;
17618;SDS011;8928;51.678;6.074;2022-09-06T10:10:06;5.22;;;1.80;;
17618;SDS011;8928;51.678;6.074;2022-09-06T10:13:06;3.88;;;1.50;;
17618;SDS011;8928;51.678;6.074;2022-09-06T10:15:55;4.97;;;1.50;;
17618;SDS011;8928;51.678;6.074;2022-09-06T10:18:43;4.28;;;1.75;;
17618;SDS011;8928;51.678;6.074;2022-09-06T10:21:30;5.00;;;1.73;;
17618;SDS011;8928;51.678;6.074;2022-09-06T10:24:19;4.43;;;1.77;;
17618;SDS011;8928;51.678;6.074;2022-09-06T10:27:12;5.20;;;1.90;;
17618;SDS011;8928;51.678;6.074;2022-09-06T10:30:05;5.63;;;1.65;;
17618;SDS011;8928;51.678;6.074;2022-09-06T10:32:54;6.13;;;1.90;;
17618;SDS011;8928;51.678;6.074;2022-09-06T10:35:49;3.75;;;2.03;;
17618;SDS011;8928;51.678;6.074;2022-09-06T10:38:40;5.85;;;2.00;;
17618;SDS011;8928;51.678;6.074;2022-09-06T10:41:41;3.25;;;1.60;;
17618;SDS011;8928;51.678;6.074;2022-09-06T10:44:40;3.40;;;1.60;;
17618;SDS011;8928;51.678;6.074;2022-09-06T10:47:44;6.68;;;1.58;;
17618;SDS011;8928;51.678;6.074;2022-09-06T10:50:41;5.22;;;2.00;;
17618;SDS011;8928;51.678;6.074;2022-09-06T10:53:38;6.78;;;2.00;;
17618;SDS011;8928;51.678;6.074;2022-09-06T10:56:31;3.28;;;1.55;;
17618;SDS011;8928;51.678;6.074;2022-09-06T10:59:24;4.90;;;1.70;;
17618;SDS011;8928;51.678;6.074;2022-09-06T11:02:15;6.72;;;1.70;;
17618;SDS011;8928;51.678;6.074;2022-09-06T11:05:15;7.32;;;1.83;;
17618;SDS011;8928;51.678;6.074;2022-09-06T11:08:08;6.18;;;2.08;;
17618;SDS011;8928;51.678;6.074;2022-09-06T11:11:01;5.88;;;2.08;;
17618;SDS011;8928;51.678;6.074;2022-09-06T11:13:52;4.80;;;1.80;;
17618;SDS011;8928;51.678;6.074;2022-09-06T11:16:41;6.22;;;1.60;;
17618;SDS011;8928;51.678;6.074;2022-09-06T11:19:35;5.40;;;1.60;;
17618;SDS011;8928;51.678;6.074;2022-09-06T11:22:35;6.32;;;1.70;;
17618;SDS011;8928;51.678;6.074;2022-09-06T11:25:50;6.70;;;1.50;;
17618;SDS011;8928;51.678;6.074;2022-09-06T11:28:51;7.30;;;1.40;;
17618;SDS011;8928;51.678;6.074;2022-09-06T11:31:48;6.80;;;1.80;;
17618;SDS011;8928;51.678;6.074;2022-09-06T11:34:39;9.60;;;1.83;;
17618;SDS011;8928;51.678;6.074;2022-09-06T11:37:30;5.47;;;1.98;;
17618;SDS011;8928;51.678;6.074;2022-09-06T11:40:21;7.47;;;2.35;;
17618;SDS011;8928;51.678;6.074;2022-09-06T11:43:12;8.77;;;2.83;;
17618;SDS011;8928;51.678;6.074;2022-09-06T11:46:01;9.45;;;2.78;;
17618;SDS011;8928;51.678;6.074;2022-09-06T11:48:49;7.45;;;2.80;;
17618;SDS011;8928;51.678;6.074;2022-09-06T11:51:47;7.95;;;2.30;;
17618;SDS011;8928;51.678;6.074;2022-09-06T11:54:36;6.72;;;2.30;;
17618;SDS011;8928;51.678;6.074;2022-09-06T11:57:29;6.00;;;2.20;;
17618;SDS011;8928;51.678;6.074;2022-09-06T12:00:18;9.50;;;2.08;;
17618;SDS011;8928;51.678;6.074;2022-09-06T12:03:08;7.43;;;2.25;;
17618;SDS011;8928;51.678;6.074;2022-09-06T12:06:16;4.65;;;2.00;;
17618;SDS011;8928;51.678;6.074;2022-09-06T12:15:26;5.03;;;1.85;;
17618;SDS011;8928;51.678;6.074;2022-09-06T12:21:43;5.40;;;1.90;;
17618;SDS011;8928;51.678;6.074;2022-09-06T12:24:53;5.95;;;2.00;;
17618;SDS011;8928;51.678;6.074;2022-09-06T12:27:50;4.50;;;2.03;;
17618;SDS011;8928;51.678;6.074;2022-09-06T12:30:40;8.48;;;2.20;;
17618;SDS011;8928;51.678;6.074;2022-09-06T12:33:29;9.85;;;2.25;;
17618;SDS011;8928;51.678;6.074;2022-09-06T12:36:18;5.70;;;2.20;;
17618;SDS011;8928;51.678;6.074;2022-09-06T12:39:08;6.22;;;2.05;;
17618;SDS011;8928;51.678;6.074;2022-09-06T12:41:58;7.45;;;2.20;;
17618;SDS011;8928;51.678;6.074;2022-09-06T12:44:48;7.35;;;2.03;;
17618;SDS011;8928;51.678;6.074;2022-09-06T12:47:38;4.25;;;1.95;;
17618;SDS011;8928;51.678;6.074;2022-09-06T12:50:25;5.60;;;2.10;;
17618;SDS011;8928;51.678;6.074;2022-09-06T12:53:17;8.85;;;2.13;;
17618;SDS011;8928;51.678;6.074;2022-09-06T12:56:09;8.15;;;2.00;;
17618;SDS011;8928;51.678;6.074;2022-09-06T12:59:10;4.70;;;1.73;;
17618;SDS011;8928;51.678;6.074;2022-09-06T13:02:01;5.68;;;1.75;;
17618;SDS011;8928;51.678;6.074;2022-09-06T13:04:51;2.97;;;1.30;;
17618;SDS011;8928;51.678;6.074;2022-09-06T13:07:41;6.88;;;1.60;;
17618;SDS011;8928;51.678;6.074;2022-09-06T13:10:31;7.15;;;1.80;;
17618;SDS011;8928;51.678;6.074;2022-09-06T13:13:19;3.58;;;1.83;;
17618;SDS011;8928;51.678;6.074;2022-09-06T13:16:10;6.97;;;1.70;;
17618;SDS011;8928;51.678;6.074;2022-09-06T13:19:10;5.32;;;1.92;;
17618;SDS011;8928;51.678;6.074;2022-09-06T13:21:59;3.40;;;1.80;;
17618;SDS011;8928;51.678;6.074;2022-09-06T13:24:49;5.72;;;1.90;;
17618;SDS011;8928;51.678;6.074;2022-09-06T13:27:42;8.75;;;1.92;;
17618;SDS011;8928;51.678;6.074;2022-09-06T13:30:32;6.05;;;2.00;;
17618;SDS011;8928;51.678;6.074;2022-09-06T13:33:23;4.30;;;1.48;;
17618;SDS011;8928;51.678;6.074;2022-09-06T13:36:19;5.47;;;1.63;;
17618;SDS011;8928;51.678;6.074;2022-09-06T13:39:08;6.22;;;1.25;;
17618;SDS011;8928;51.678;6.074;2022-09-06T13:41:59;6.25;;;1.10;;
17618;SDS011;8928;51.678;6.074;2022-09-06T13:44:47;4.00;;;1.30;;
17618;SDS011;8928;51.678;6.074;2022-09-06T13:47:35;6.88;;;1.33;;
17618;SDS011;8928;51.678;6.074;2022-09-06T13:50:22;6.05;;;1.23;;
17618;SDS011;8928;51.678;6.074;2022-09-06T13:53:12;7.70;;;1.67;;
17618;SDS011;8928;51.678;6.074;2022-09-06T13:56:04;3.42;;;1.40;;
17618;SDS011;8928;51.678;6.074;2022-09-06T13:58:52;6.18;;;1.55;;
17618;SDS011;8928;51.678;6.074;2022-09-06T14:01:40;3.67;;;1.33;;
17618;SDS011;8928;51.678;6.074;2022-09-06T14:04:29;5.82;;;1.33;;
17618;SDS011;8928;51.678;6.074;2022-09-06T14:07:16;3.83;;;1.38;;
17618;SDS011;8928;51.678;6.074;2022-09-06T14:10:05;3.15;;;1.20;;
17618;SDS011;8928;51.678;6.074;2022-09-06T14:12:52;4.05;;;1.30;;
17618;SDS011;8928;51.678;6.074;2022-09-06T14:15:39;4.75;;;1.50;;
17618;SDS011;8928;51.678;6.074;2022-09-06T14:18:27;4.15;;;1.27;;
17618;SDS011;8928;51.678;6.074;2022-09-06T14:21:15;6.57;;;1.30;;
17618;SDS011;8928;51.678;6.074;2022-09-06T14:24:02;4.95;;;1.27;;
17618;SDS011;8928;51.678;6.074;2022-09-06T14:26:51;3.75;;;1.33;;
17618;SDS011;8928;51.678;6.074;2022-09-06T14:29:38;5.38;;;1.50;;
17618;SDS011;8928;51.678;6.074;2022-09-06T14:32:25;4.97;;;1.40;;
17618;SDS011;8928;51.678;6.074;2022-09-06T14:35:12;4.70;;;1.42;;
17618;SDS011;8928;51.678;6.074;2022-09-06T14:37:59;7.65;;;1.48;;
17618;SDS011;8928;51.678;6.074;2022-09-06T14:40:46;5.82;;;1.27;;
17618;SDS011;8928;51.678;6.074;2022-09-06T14:43:35;4.13;;;1.20;;
17618;SDS011;8928;51.678;6.074;2022-09-06T14:46:23;6.57;;;1.50;;
17618;SDS011;8928;51.678;6.074;2022-09-06T14:49:11;3.80;;;1.50;;
17618;SDS011;8928;51.678;6.074;2022-09-06T14:51:58;10.00;;;1.45;;
17618;SDS011;8928;51.678;6.074;2022-09-06T14:54:45;3.95;;;1.52;;
17618;SDS011;8928;51.678;6.074;2022-09-06T14:57:32;5.60;;;1.60;;
17618;SDS011;8928;51.678;6.074;2022-09-06T15:00:21;3.92;;;1.40;;
17618;SDS011;8928;51.678;6.074;2022-09-06T15:03:08;5.70;;;1.30;;
17618;SDS011;8928;51.678;6.074;2022-09-06T15:05:55;6.57;;;1.73;;
17618;SDS011;8928;51.678;6.074;2022-09-06T15:08:42;3.00;;;1.48;;
17618;SDS011;8928;51.678;6.074;2022-09-06T15:11:30;3.60;;;1.55;;
17618;SDS011;8928;51.678;6.074;2022-09-06T15:14:19;8.38;;;1.40;;
17618;SDS011;8928;51.678;6.074;2022-09-06T15:17:08;4.70;;;1.50;;
17618;SDS011;8928;51.678;6.074;2022-09-06T15:19:56;4.25;;;1.50;;
17618;SDS011;8928;51.678;6.074;2022-09-06T15:22:43;8.40;;;1.52;;
17618;SDS011;8928;51.678;6.074;2022-09-06T15:25:30;3.42;;;1.40;;
17618;SDS011;8928;51.678;6.074;2022-09-06T15:28:17;4.28;;;1.40;;
17618;SDS011;8928;51.678;6.074;2022-09-06T15:31:05;3.25;;;1.60;;
17618;SDS011;8928;51.678;6.074;2022-09-06T15:33:55;4.97;;;1.50;;
17618;SDS011;8928;51.678;6.074;2022-09-06T15:36:42;3.42;;;1.60;;
17618;SDS011;8928;51.678;6.074;2022-09-06T15:39:29;3.90;;;1.58;;
17618;SDS011;8928;51.678;6.074;2022-09-06T15:42:16;5.15;;;2.17;;
17618;SDS011;8928;51.678;6.074;2022-09-06T15:45:04;3.92;;;1.42;;
17618;SDS011;8928;51.678;6.074;2022-09-06T15:47:52;5.88;;;1.60;;
17618;SDS011;8928;51.678;6.074;2022-09-06T15:50:41;7.38;;;1.38;;
17618;SDS011;8928;51.678;6.074;2022-09-06T15:53:29;7.88;;;1.50;;
17618;SDS011;8928;51.678;6.074;2022-09-06T15:56:16;3.05;;;1.52;;
17618;SDS011;8928;51.678;6.074;2022-09-06T15:59:04;4.53;;;1.60;;
17618;SDS011;8928;51.678;6.074;2022-09-06T16:01:51;3.72;;;1.60;;
17618;SDS011;8928;51.678;6.074;2022-09-06T16:04:38;5.47;;;1.58;;
17618;SDS011;8928;51.678;6.074;2022-09-06T16:07:27;4.20;;;1.50;;
17618;SDS011;8928;51.678;6.074;2022-09-06T16:10:14;3.20;;;1.45;;
17618;SDS011;8928;51.678;6.074;2022-09-06T16:13:01;7.53;;;1.58;;
17618;SDS011;8928;51.678;6.074;2022-09-06T16:15:54;6.03;;;1.50;;
17618;SDS011;8928;51.678;6.074;2022-09-06T16:18:42;4.07;;;1.60;;
17618;SDS011;8928;51.678;6.074;2022-09-06T16:21:32;4.75;;;1.77;;
17618;SDS011;8928;51.678;6.074;2022-09-06T16:24:23;3.97;;;1.60;;
17618;SDS011;8928;51.678;6.074;2022-09-06T16:27:11;4.70;;;1.77;;
17618;SDS011;8928;51.678;6.074;2022-09-06T16:29:58;5.95;;;1.50;;
17618;SDS011;8928;51.678;6.074;2022-09-06T16:32:45;3.08;;;1.55;;
17618;SDS011;8928;51.678;6.074;2022-09-06T16:35:32;4.80;;;1.40;;
17618;SDS011;8928;51.678;6.074;2022-09-06T16:38:23;4.68;;;1.50;;
17618;SDS011;8928;51.678;6.074;2022-09-06T16:41:12;5.28;;;1.60;;
17618;SDS011;8928;51.678;6.074;2022-09-06T16:44:01;8.80;;;1.80;;
17618;SDS011;8928;51.678;6.074;2022-09-06T16:46:48;8.05;;;1.77;;
17618;SDS011;8928;51.678;6.074;2022-09-06T16:49:38;11.68;;;2.10;;
17618;SDS011;8928;51.678;6.074;2022-09-06T16:52:25;4.88;;;1.70;;
17618;SDS011;8928;51.678;6.074;2022-09-06T16:55:12;6.13;;;1.70;;
17618;SDS011;8928;51.678;6.074;2022-09-06T16:58:01;6.13;;;1.90;;
17618;SDS011;8928;51.678;6.074;2022-09-06T17:00:48;4.55;;;1.85;;
17618;SDS011;8928;51.678;6.074;2022-09-06T17:03:37;7.72;;;2.00;;
17618;SDS011;8928;51.678;6.074;2022-09-06T17:06:24;8.95;;;1.85;;
17618;SDS011;8928;51.678;6.074;2022-09-06T17:09:17;7.75;;;1.80;;
17618;SDS011;8928;51.678;6.074;2022-09-06T17:12:04;7.72;;;1.80;;
17618;SDS011;8928;51.678;6.074;2022-09-06T17:14:53;6.10;;;2.00;;
17618;SDS011;8928;51.678;6.074;2022-09-06T17:17:40;8.88;;;1.50;;
17618;SDS011;8928;51.678;6.074;2022-09-06T17:20:26;7.05;;;1.85;;
17618;SDS011;8928;51.678;6.074;2022-09-06T17:23:14;7.75;;;1.88;;
17618;SDS011;8928;51.678;6.074;2022-09-06T17:26:01;6.90;;;1.90;;
17618;SDS011;8928;51.678;6.074;2022-09-06T17:28:49;8.23;;;1.98;;